createdAt,value
2024-02-03T00:00:17.723Z,115.84
2024-02-03T00:01:17.778Z,117.33
2024-02-03T00:02:17.783Z,115.13
2024-02-03T00:03:17.839Z,109.32
2024-02-03T00:04:17.856Z,108.55
2024-02-03T00:05:17.917Z,108.57
2024-02-03T00:06:17.940Z,111.73
2024-02-03T00:07:17.915Z,117.39
2024-02-03T00:08:17.890Z,115.33
2024-02-03T00:09:17.984Z,106.79
2024-02-03T00:10:17.925Z,100.10
2024-02-03T00:11:17.970Z,94.15
2024-02-03T00:12:18.053Z,97.71
2024-02-03T00:13:18.038Z,90.81
2024-02-03T00:14:18.135Z,90.28
2024-02-03T00:15:18.371Z,93.77
2024-02-03T00:16:18.179Z,94.88
2024-02-03T00:17:18.246Z,88.26
2024-02-03T00:18:18.433Z,97.54
2024-02-03T00:19:18.435Z,108.21
2024-02-03T00:20:18.376Z,114.11
2024-02-03T00:21:18.389Z,122.09
2024-02-03T00:22:18.435Z,128.00
2024-02-03T00:23:18.563Z,128.40
2024-02-03T00:24:18.581Z,131.30
2024-02-03T00:25:18.543Z,131.88
2024-02-03T00:26:18.520Z,135.09
2024-02-03T00:27:18.613Z,128.52
2024-02-03T00:28:18.521Z,121.25
2024-02-03T00:29:18.632Z,110.07
2024-02-03T00:30:18.615Z,99.57
2024-02-03T00:31:18.612Z,89.98
2024-02-03T00:32:18.648Z,81.83
2024-02-03T00:33:18.882Z,79.35
2024-02-03T00:34:18.729Z,84.99
2024-02-03T00:35:18.750Z,81.97
2024-02-03T00:36:18.772Z,83.61
2024-02-03T00:37:18.789Z,80.40
2024-02-03T00:38:18.879Z,86.50
2024-02-03T00:39:18.875Z,88.19
2024-02-03T00:40:18.957Z,85.65
2024-02-03T00:41:18.875Z,81.59
2024-02-03T00:42:18.901Z,77.88
2024-02-03T00:43:18.974Z,78.78
2024-02-03T00:44:19.022Z,81.76
2024-02-03T00:45:19.065Z,83.75
2024-02-03T00:46:19.063Z,84.00
2024-02-03T00:47:19.204Z,89.27
2024-02-03T00:48:19.334Z,91.98
2024-02-03T00:49:19.419Z,95.26
2024-02-03T00:50:19.275Z,97.16
2024-02-03T00:51:19.355Z,98.92
2024-02-03T00:52:19.409Z,101.96
2024-02-03T00:53:19.494Z,105.64
2024-02-03T00:54:19.499Z,107.88
2024-02-03T00:55:19.477Z,110.47
2024-02-03T00:56:19.680Z,108.53
2024-02-03T00:57:19.639Z,107.04
2024-02-03T00:58:19.597Z,107.97
2024-02-03T00:59:19.606Z,108.56
2024-02-03T01:00:19.704Z,105.09
2024-02-03T01:01:19.788Z,101.46
2024-02-03T01:02:19.704Z,101.71
2024-02-03T01:03:19.896Z,98.87
2024-02-03T01:04:19.869Z,95.68
2024-02-03T01:05:19.816Z,92.92
2024-02-03T01:06:19.907Z,86.89
2024-02-03T01:07:19.913Z,85.90
2024-02-03T01:08:19.907Z,83.83
2024-02-03T01:09:22.010Z,84.20
2024-02-03T01:10:19.975Z,81.00
2024-02-03T01:11:19.946Z,78.10
2024-02-03T01:12:20.155Z,76.48
2024-02-03T01:13:20.011Z,80.42
2024-02-03T01:14:19.995Z,84.34
2024-02-03T01:15:20.046Z,83.01
2024-02-03T01:16:20.062Z,83.11
2024-02-03T01:17:20.060Z,86.10
2024-02-03T01:18:20.413Z,84.57
2024-02-03T01:19:20.686Z,84.64
2024-02-03T01:20:20.177Z,83.89
2024-02-03T01:21:20.318Z,84.95
2024-02-03T01:22:20.289Z,85.70
2024-02-03T01:23:20.301Z,86.18
2024-02-03T01:24:20.515Z,90.07
2024-02-03T01:25:20.500Z,86.73
2024-02-03T01:26:20.552Z,82.51
2024-02-03T01:27:20.734Z,83.64
2024-02-03T01:28:20.584Z,80.84
2024-02-03T01:29:20.711Z,80.87
2024-02-03T01:30:20.665Z,79.83
2024-02-03T01:31:20.682Z,77.53
2024-02-03T01:32:20.769Z,76.32
2024-02-03T01:33:20.860Z,74.40
2024-02-03T01:34:20.902Z,71.00
2024-02-03T01:35:20.861Z,70.33
2024-02-03T01:36:20.913Z,66.00
2024-02-03T01:37:20.927Z,69.60
2024-02-03T01:38:20.936Z,70.59
2024-02-03T01:39:21.094Z,72.54
2024-02-03T01:40:21.045Z,75.26
2024-02-03T01:41:21.111Z,71.53
2024-02-03T01:42:21.153Z,71.73
2024-02-03T01:43:21.211Z,72.28
2024-02-03T01:44:21.269Z,73.74
2024-02-03T01:45:21.288Z,73.43
2024-02-03T01:46:21.291Z,72.50
2024-02-03T01:47:21.369Z,72.19
2024-02-03T01:48:21.429Z,74.36
2024-02-03T01:49:21.550Z,73.28
2024-02-03T01:50:21.478Z,74.57
2024-02-03T01:51:21.614Z,72.15
2024-02-03T01:52:21.577Z,72.35
2024-02-03T01:53:21.615Z,74.39
2024-02-03T01:54:21.753Z,75.57
2024-02-03T01:55:21.705Z,77.47
2024-02-03T01:56:21.756Z,78.14
2024-02-03T01:57:21.821Z,78.98
2024-02-03T01:58:21.848Z,78.12
2024-02-03T01:59:21.863Z,78.86
2024-02-03T02:00:22.017Z,80.22
2024-02-03T02:01:22.032Z,78.00
2024-02-03T02:02:21.921Z,80.96
2024-02-03T02:03:22.165Z,76.03
2024-02-03T02:04:22.211Z,74.34
2024-02-03T02:05:22.137Z,69.80
2024-02-03T02:06:22.324Z,66.93
2024-02-03T02:07:22.307Z,61.78
2024-02-03T02:08:22.285Z,62.67
2024-02-03T02:09:22.417Z,55.99
2024-02-03T02:10:22.441Z,56.40
2024-02-03T02:11:22.555Z,51.72
2024-02-03T02:12:22.528Z,50.72
2024-02-03T02:13:22.657Z,51.20
2024-02-03T02:14:22.613Z,50.00
2024-02-03T02:15:22.696Z,53.89
2024-02-03T02:16:22.735Z,53.02
2024-02-03T02:17:22.809Z,50.44
2024-02-03T02:18:22.996Z,51.37
2024-02-03T02:19:23.020Z,52.71
2024-02-03T02:20:22.953Z,54.28
2024-02-03T02:21:23.081Z,54.36
2024-02-03T02:22:22.998Z,52.96
2024-02-03T02:23:23.029Z,53.20
2024-02-03T02:24:23.077Z,55.98
2024-02-03T02:25:23.073Z,58.31
2024-02-03T02:26:23.100Z,58.47
2024-02-03T02:27:23.134Z,60.33
2024-02-03T02:28:23.145Z,60.88
2024-02-03T02:29:23.215Z,59.42
2024-02-03T02:30:23.306Z,58.98
2024-02-03T02:31:23.295Z,58.93
2024-02-03T02:32:23.357Z,57.11
2024-02-03T02:33:23.599Z,58.24
2024-02-03T02:34:23.458Z,62.65
2024-02-03T02:35:23.447Z,64.53
2024-02-03T02:36:23.501Z,66.02
2024-02-03T02:37:23.528Z,66.73
2024-02-03T02:38:23.538Z,67.59
2024-02-03T02:39:23.623Z,72.18
2024-02-03T02:40:23.636Z,73.85
2024-02-03T02:41:23.737Z,75.72
2024-02-03T02:42:23.830Z,71.66
2024-02-03T02:43:23.884Z,67.69
2024-02-03T02:44:23.906Z,61.61
2024-02-03T02:45:23.933Z,57.85
2024-02-03T02:46:23.885Z,57.30
2024-02-03T02:47:24.012Z,56.46
2024-02-03T02:48:24.083Z,59.13
2024-02-03T02:49:24.175Z,63.36
2024-02-03T02:50:24.041Z,66.42
2024-02-03T02:51:24.057Z,63.72
2024-02-03T02:52:24.052Z,64.19
2024-02-03T02:53:24.145Z,59.73
2024-02-03T02:54:24.142Z,58.29
2024-02-03T02:55:24.241Z,56.19
2024-02-03T02:56:24.241Z,52.17
2024-02-03T02:57:24.332Z,53.22
2024-02-03T02:58:24.346Z,50.00
2024-02-03T02:59:24.381Z,51.37
2024-02-03T03:00:24.356Z,55.06
2024-02-03T03:01:24.461Z,66.66
2024-02-03T03:02:24.373Z,71.38
2024-02-03T03:03:24.457Z,73.46
2024-02-03T03:04:24.465Z,74.25
2024-02-03T03:05:24.417Z,70.07
2024-02-03T03:06:24.429Z,67.59
2024-02-03T03:07:24.505Z,63.82
2024-02-03T03:08:24.473Z,59.36
2024-02-03T03:09:24.538Z,58.26
2024-02-03T03:10:24.613Z,59.15
2024-02-03T03:11:24.556Z,61.50
2024-02-03T03:12:24.647Z,62.51
2024-02-03T03:13:24.603Z,60.95
2024-02-03T03:14:24.633Z,62.27
2024-02-03T03:15:24.660Z,64.78
2024-02-03T03:16:24.669Z,61.82
2024-02-03T03:17:24.648Z,53.92
2024-02-03T03:18:24.747Z,53.00
2024-02-03T03:19:24.801Z,52.87
2024-02-03T03:20:24.721Z,54.09
2024-02-03T03:21:24.855Z,56.73
2024-02-03T03:22:24.789Z,57.65
2024-02-03T03:23:24.844Z,58.18
2024-02-03T03:24:24.935Z,57.18
2024-02-03T03:25:24.936Z,58.63
2024-02-03T03:26:24.931Z,56.34
2024-02-03T03:27:25.030Z,58.84
2024-02-03T03:28:25.033Z,54.93
2024-02-03T03:29:25.075Z,52.55
2024-02-03T03:30:25.170Z,50.00
2024-02-03T03:31:25.166Z,50.23
2024-02-03T03:32:25.279Z,50.08
2024-02-03T03:33:25.405Z,52.60
2024-02-03T03:34:25.405Z,52.29
2024-02-03T03:35:25.318Z,51.57
2024-02-03T03:36:25.478Z,57.14
2024-02-03T03:37:25.368Z,57.83
2024-02-03T03:38:25.372Z,58.54
2024-02-03T03:39:25.465Z,65.96
2024-02-03T03:40:25.490Z,65.48
2024-02-03T03:41:25.577Z,55.94
2024-02-03T03:42:25.655Z,50.00
2024-02-03T03:43:25.697Z,50.00
2024-02-03T03:44:25.758Z,50.98
2024-02-03T03:45:25.793Z,50.59
2024-02-03T03:46:25.789Z,52.03
2024-02-03T03:47:25.913Z,53.45
2024-02-03T03:48:25.977Z,50.00
2024-02-03T03:49:26.008Z,50.00
2024-02-03T03:50:25.965Z,50.25
2024-02-03T03:51:26.053Z,51.44
2024-02-03T03:52:26.086Z,53.02
2024-02-03T03:53:26.056Z,52.11
2024-02-03T03:54:26.105Z,55.93
2024-02-03T03:55:26.148Z,55.47
2024-02-03T03:56:26.178Z,55.75
2024-02-03T03:57:26.304Z,57.81
2024-02-03T03:58:26.293Z,59.27
2024-02-03T03:59:26.356Z,62.17
2024-02-03T04:00:26.482Z,63.78
2024-02-03T04:01:26.473Z,67.39
2024-02-03T04:02:26.557Z,68.46
2024-02-03T04:03:26.583Z,69.41
2024-02-03T04:04:26.667Z,68.72
2024-02-03T04:05:26.705Z,73.96
2024-02-03T04:06:26.751Z,73.59
2024-02-03T04:07:26.747Z,73.68
2024-02-03T04:08:26.772Z,69.21
2024-02-03T04:09:36.933Z,65.41
2024-02-03T04:10:26.837Z,65.79
2024-02-03T04:11:26.833Z,66.49
2024-02-03T04:12:26.850Z,66.00
2024-02-03T04:13:26.872Z,60.23
2024-02-03T04:14:26.848Z,54.97
2024-02-03T04:15:26.867Z,55.67
2024-02-03T04:16:26.842Z,52.62
2024-02-03T04:17:26.843Z,50.00
2024-02-03T04:18:27.346Z,51.62
2024-02-03T04:19:26.991Z,52.93
2024-02-03T04:20:26.881Z,50.98
2024-02-03T04:21:26.863Z,50.61
2024-02-03T04:22:26.900Z,55.35
2024-02-03T04:23:26.866Z,63.73
2024-02-03T04:24:31.978Z,70.89
2024-02-03T04:25:26.892Z,71.38
2024-02-03T04:26:26.982Z,72.87
2024-02-03T04:27:26.881Z,76.57
2024-02-03T04:28:26.865Z,79.31
2024-02-03T04:29:26.896Z,82.35
2024-02-03T04:30:26.932Z,81.85
2024-02-03T04:31:26.934Z,81.83
2024-02-03T04:32:27.080Z,85.09
2024-02-03T04:33:27.130Z,94.99
2024-02-03T04:34:27.848Z,109.57
2024-02-03T04:35:27.091Z,114.85
2024-02-03T04:36:27.167Z,119.66
2024-02-03T04:37:27.249Z,120.60
2024-02-03T04:38:27.265Z,121.16
2024-02-03T04:39:27.348Z,121.77
2024-02-03T04:40:27.358Z,126.94
2024-02-03T04:41:27.380Z,124.28
2024-02-03T04:42:27.402Z,124.07
2024-02-03T04:43:27.434Z,121.70
2024-02-03T04:44:27.532Z,109.54
2024-02-03T04:45:27.573Z,100.18
2024-02-03T04:46:27.715Z,98.24
2024-02-03T04:47:27.578Z,101.47
2024-02-03T04:48:27.815Z,103.93
2024-02-03T04:49:27.812Z,106.67
2024-02-03T04:50:27.816Z,94.77
2024-02-03T04:51:35.224Z,50.00
2024-02-03T04:52:35.168Z,50.00
2024-02-03T04:53:35.267Z,50.00
2024-02-03T04:54:35.358Z,50.00
2024-02-03T04:55:35.324Z,50.00
2024-02-03T04:56:35.356Z,53.36
2024-02-03T04:57:35.541Z,50.00
2024-02-03T04:58:35.504Z,52.62
2024-02-03T04:59:35.611Z,53.47
2024-02-03T05:00:35.641Z,58.34
2024-02-03T05:01:35.692Z,57.59
2024-02-03T05:02:35.687Z,58.51
2024-02-03T05:03:35.758Z,61.69
2024-02-03T05:04:35.975Z,58.69
2024-02-03T05:05:35.800Z,56.92
2024-02-03T05:06:35.918Z,61.69
2024-02-03T05:07:35.853Z,62.40
2024-02-03T05:08:35.903Z,61.68
2024-02-03T05:09:35.977Z,60.05
2024-02-03T05:10:35.962Z,66.16
2024-02-03T05:11:36.007Z,76.06
2024-02-03T05:12:36.178Z,81.71
2024-02-03T05:13:36.103Z,77.10
2024-02-03T05:14:41.177Z,69.56
2024-02-03T05:15:36.169Z,69.63
2024-02-03T05:16:36.157Z,68.22
2024-02-03T05:17:36.216Z,66.53
2024-02-03T05:18:36.285Z,65.93
2024-02-03T05:19:36.334Z,69.81
2024-02-03T05:20:36.161Z,72.44
2024-02-03T05:21:36.182Z,76.78
2024-02-03T05:22:36.191Z,73.87
2024-02-03T05:23:36.236Z,63.32
2024-02-03T05:24:36.310Z,52.17
2024-02-03T05:25:36.293Z,50.00
2024-02-03T05:26:36.345Z,50.36
2024-02-03T05:27:36.346Z,50.01
2024-02-03T05:28:36.441Z,50.33
2024-02-03T05:29:36.405Z,50.00
2024-02-03T05:30:36.479Z,59.53
2024-02-03T05:31:36.486Z,69.75
2024-02-03T05:32:36.555Z,83.00
2024-02-03T05:33:36.684Z,86.62
2024-02-03T05:34:36.721Z,92.82
2024-02-03T05:35:36.613Z,91.74
2024-02-03T05:36:36.683Z,89.76
2024-02-03T05:37:36.742Z,87.77
2024-02-03T05:38:36.780Z,83.63
2024-02-03T05:39:41.946Z,83.72
2024-02-03T05:40:36.797Z,84.08
2024-02-03T05:41:36.847Z,84.71
2024-02-03T05:42:36.843Z,86.07
2024-02-03T05:43:36.814Z,89.89
2024-02-03T05:44:36.837Z,93.05
2024-02-03T05:45:36.834Z,92.38
2024-02-03T05:46:36.837Z,94.65
2024-02-03T05:47:36.924Z,92.93
2024-02-03T05:48:37.057Z,93.56
2024-02-03T05:49:37.046Z,96.79
2024-02-03T05:50:37.066Z,96.69
2024-02-03T05:51:37.119Z,96.26
2024-02-03T05:52:37.196Z,96.11
2024-02-03T05:53:37.212Z,96.09
2024-02-03T05:54:37.380Z,98.19
2024-02-03T05:55:37.307Z,98.85
2024-02-03T05:56:37.317Z,101.71
2024-02-03T05:57:37.393Z,98.80
2024-02-03T05:58:37.456Z,98.69
2024-02-03T05:59:41.705Z,101.37
2024-02-03T06:00:40.427Z,101.49
2024-02-03T06:01:37.510Z,101.98
2024-02-03T06:02:37.435Z,103.12
2024-02-03T06:03:37.590Z,107.84
2024-02-03T06:04:47.607Z,139.34
2024-02-03T06:05:48.637Z,103.53
2024-02-03T06:06:38.571Z,104.60
2024-02-03T06:07:37.607Z,115.54
2024-02-03T06:08:37.470Z,135.90
2024-02-03T06:09:37.454Z,166.52
2024-02-03T06:10:37.546Z,206.00
2024-02-03T06:11:37.494Z,198.70
2024-02-03T06:12:37.491Z,189.55
2024-02-03T06:13:37.486Z,184.18
2024-02-03T06:14:37.502Z,182.61
2024-02-03T06:15:37.474Z,181.66
2024-02-03T06:16:37.500Z,176.71
2024-02-03T06:17:37.526Z,176.43
2024-02-03T06:18:37.609Z,170.96
2024-02-03T06:19:40.204Z,159.37
2024-02-03T06:20:38.483Z,157.54
2024-02-03T06:21:37.530Z,145.81
2024-02-03T06:22:37.523Z,135.82
2024-02-03T06:23:37.521Z,122.65
2024-02-03T06:24:37.620Z,114.95
2024-02-03T06:25:37.992Z,109.04
2024-02-03T06:26:37.467Z,114.53
2024-02-03T06:27:37.508Z,121.61
2024-02-03T06:28:37.481Z,124.61
2024-02-03T06:29:37.494Z,126.21
2024-02-03T06:30:37.516Z,126.90
2024-02-03T06:31:37.482Z,128.24
2024-02-03T06:32:37.543Z,128.39
2024-02-03T06:33:37.661Z,128.46
2024-02-03T06:34:42.572Z,131.90
2024-02-03T06:35:40.420Z,132.02
2024-02-03T06:36:37.598Z,132.04
2024-02-03T06:37:37.538Z,128.66
2024-02-03T06:38:37.582Z,131.48
2024-02-03T06:39:42.632Z,133.83
2024-02-03T06:40:37.563Z,132.32
2024-02-03T06:41:37.543Z,132.66
2024-02-03T06:42:37.652Z,132.08
2024-02-03T06:43:37.551Z,132.65
2024-02-03T06:44:37.534Z,135.03
2024-02-03T06:45:37.602Z,136.68
2024-02-03T06:46:37.542Z,138.18
2024-02-03T06:47:37.626Z,135.61
2024-02-03T06:48:37.687Z,135.88
2024-02-03T06:49:37.881Z,134.49
2024-02-03T06:50:37.709Z,136.80
2024-02-03T06:51:37.826Z,135.08
2024-02-03T06:52:37.795Z,137.21
2024-02-03T06:53:37.859Z,152.78
2024-02-03T06:54:37.960Z,160.05
2024-02-03T06:55:37.960Z,177.68
2024-02-03T06:56:38.012Z,172.80
2024-02-03T06:57:38.104Z,166.22
2024-02-03T06:58:38.078Z,165.97
2024-02-03T06:59:38.102Z,167.38
2024-02-03T07:00:38.188Z,170.54
2024-02-03T07:01:38.188Z,170.61
2024-02-03T07:02:38.233Z,174.85
2024-02-03T07:03:38.358Z,178.70
2024-02-03T07:04:38.308Z,175.43
2024-02-03T07:05:38.342Z,160.98
2024-02-03T07:06:38.468Z,144.08
2024-02-03T07:07:38.514Z,128.74
2024-02-03T07:08:38.469Z,117.56
2024-02-03T07:09:38.674Z,109.54
2024-02-03T07:10:38.576Z,105.28
2024-02-03T07:11:39.825Z,115.71
2024-02-03T07:12:38.650Z,133.54
2024-02-03T07:13:38.603Z,134.11
2024-02-03T07:14:38.598Z,130.70
2024-02-03T07:15:38.639Z,129.96
2024-02-03T07:16:38.633Z,141.76
2024-02-03T07:17:38.666Z,149.04
2024-02-03T07:18:38.753Z,143.11
2024-02-03T07:19:38.883Z,140.17
2024-02-03T07:20:38.622Z,133.68
2024-02-03T07:21:38.730Z,127.67
2024-02-03T07:22:38.617Z,133.11
2024-02-03T07:23:38.648Z,134.89
2024-02-03T07:24:43.773Z,135.95
2024-02-03T07:25:38.639Z,136.36
2024-02-03T07:26:38.672Z,137.00
2024-02-03T07:27:38.719Z,138.40
2024-02-03T07:28:38.666Z,134.00
2024-02-03T07:29:38.663Z,126.97
2024-02-03T07:30:38.707Z,119.80
2024-02-03T07:31:38.678Z,112.58
2024-02-03T07:32:38.710Z,105.32
2024-02-03T07:33:38.763Z,119.14
2024-02-03T07:34:38.861Z,123.43
2024-02-03T07:35:38.843Z,118.43
2024-02-03T07:36:38.845Z,122.44
2024-02-03T07:37:38.821Z,130.54
2024-02-03T07:38:38.827Z,132.02
2024-02-03T07:39:39.011Z,135.38
2024-02-03T07:40:38.948Z,140.70
2024-02-03T07:41:38.985Z,147.23
2024-02-03T07:42:39.057Z,152.18
2024-02-03T07:43:39.015Z,152.69
2024-02-03T07:44:39.040Z,155.93
2024-02-03T07:45:39.071Z,153.61
2024-02-03T07:46:39.093Z,149.55
2024-02-03T07:47:39.101Z,146.67
2024-02-03T07:48:39.317Z,145.77
2024-02-03T07:49:39.275Z,149.66
2024-02-03T07:50:39.229Z,159.35
2024-02-03T07:51:39.320Z,164.27
2024-02-03T07:52:39.298Z,166.09
2024-02-03T07:53:39.325Z,166.84
2024-02-03T07:54:39.427Z,167.65
2024-02-03T07:55:39.367Z,173.13
2024-02-03T07:56:39.392Z,173.70
2024-02-03T07:57:39.473Z,174.87
2024-02-03T07:58:39.500Z,171.30
2024-02-03T07:59:39.541Z,167.23
2024-02-03T08:00:39.637Z,161.47
2024-02-03T08:01:39.620Z,164.28
2024-02-03T08:02:39.584Z,155.50
2024-02-03T08:03:44.732Z,147.30
2024-02-03T08:04:39.684Z,143.17
2024-02-03T08:05:39.670Z,131.25
2024-02-03T08:06:39.715Z,128.10
2024-02-03T08:07:39.645Z,127.22
2024-02-03T08:08:39.598Z,125.50
2024-02-03T08:09:39.647Z,123.44
2024-02-03T08:10:39.616Z,123.41
2024-02-03T08:11:39.612Z,134.75
2024-02-03T08:12:39.627Z,140.34
2024-02-03T08:13:39.624Z,140.09
2024-02-03T08:14:39.629Z,137.73
2024-02-03T08:15:39.683Z,136.43
2024-02-03T08:16:39.682Z,139.92
2024-02-03T08:17:39.755Z,144.47
2024-02-03T08:18:39.843Z,144.28
2024-02-03T08:19:39.870Z,149.79
2024-02-03T08:20:39.846Z,151.45
2024-02-03T08:21:39.968Z,153.36
2024-02-03T08:22:39.967Z,155.30
2024-02-03T08:23:40.014Z,158.32
2024-02-03T08:24:40.159Z,153.91
2024-02-03T08:25:40.110Z,157.69
2024-02-03T08:26:42.660Z,157.70
2024-02-03T08:27:40.161Z,153.42
2024-02-03T08:28:40.095Z,149.15
2024-02-03T08:29:40.193Z,150.91
2024-02-03T08:30:40.174Z,152.18
2024-02-03T08:31:40.136Z,158.11
2024-02-03T08:32:40.208Z,160.67
2024-02-03T08:33:40.221Z,161.43
2024-02-03T08:35:17.903Z,164.45
2024-02-03T08:35:41.342Z,164.77
2024-02-03T08:36:40.168Z,165.11
2024-02-03T08:37:40.129Z,163.82
2024-02-03T08:38:40.173Z,157.93
2024-02-03T08:40:40.162Z,158.82
2024-02-03T08:41:40.182Z,158.91
2024-02-03T08:42:40.219Z,157.00
2024-02-03T08:43:40.164Z,156.89
2024-02-03T08:44:40.141Z,156.79
2024-02-03T08:45:40.241Z,152.80
2024-02-03T08:46:40.195Z,147.18
2024-02-03T08:47:40.223Z,141.00
2024-02-03T08:48:40.241Z,135.68
2024-02-03T08:49:40.257Z,122.65
2024-02-03T08:50:40.190Z,121.09
2024-02-03T08:51:42.235Z,122.20
2024-02-03T08:52:40.155Z,122.43
2024-02-03T08:53:40.173Z,123.29
2024-02-03T08:54:40.281Z,126.02
2024-02-03T08:55:40.319Z,130.04
2024-02-03T08:56:40.314Z,130.72
2024-02-03T08:57:40.441Z,127.79
2024-02-03T08:58:40.505Z,130.00
2024-02-03T08:59:40.472Z,133.82
2024-02-03T09:00:40.750Z,132.51
2024-02-03T09:01:40.749Z,128.75
2024-02-03T09:02:40.680Z,121.83
2024-02-03T09:03:41.432Z,116.77
2024-02-03T09:04:40.823Z,117.43
2024-02-03T09:05:40.871Z,110.75
2024-02-03T09:06:40.830Z,110.92
2024-02-03T09:07:40.889Z,122.10
2024-02-03T09:08:40.952Z,135.85
2024-02-03T09:09:41.016Z,144.38
2024-02-03T09:10:40.976Z,155.20
2024-02-03T09:11:41.013Z,164.00
2024-02-03T09:12:41.008Z,166.40
2024-02-03T09:13:41.052Z,171.07
2024-02-03T09:14:41.073Z,166.72
2024-02-03T09:15:41.138Z,161.73
2024-02-03T09:16:41.146Z,160.81
2024-02-03T09:17:41.253Z,154.64
2024-02-03T09:18:41.407Z,149.44
2024-02-03T09:19:41.606Z,146.08
2024-02-03T09:20:41.393Z,151.21
2024-02-03T09:21:41.510Z,151.19
2024-02-03T09:22:41.553Z,150.28
2024-02-03T09:23:41.597Z,146.91
2024-02-03T09:24:41.602Z,144.75
2024-02-03T09:25:42.157Z,137.37
2024-02-03T09:26:41.623Z,134.22
2024-02-03T09:27:41.835Z,134.86
2024-02-03T09:28:41.687Z,131.86
2024-02-03T09:29:41.720Z,129.94
2024-02-03T09:30:41.787Z,130.23
2024-02-03T09:31:41.838Z,130.54
2024-02-03T09:32:41.927Z,135.62
2024-02-03T09:33:42.118Z,139.88
2024-02-03T09:34:41.996Z,146.68
2024-02-03T09:35:42.004Z,150.05
2024-02-03T09:38:42.145Z,156.46
2024-02-03T09:39:42.186Z,157.86
2024-02-03T09:40:42.088Z,160.38
2024-02-03T09:41:42.094Z,167.65
2024-02-03T09:42:42.092Z,185.53
2024-02-03T09:43:42.167Z,200.00
2024-02-03T09:44:42.064Z,202.70
2024-02-03T09:45:42.176Z,200.58
2024-02-03T09:46:42.112Z,199.98
2024-02-03T09:47:42.100Z,200.30
2024-02-03T09:48:42.187Z,200.00
2024-02-03T09:49:42.205Z,200.00
2024-02-03T09:50:42.062Z,200.00
2024-02-03T09:51:42.110Z,199.60
2024-02-03T09:52:42.145Z,195.80
2024-02-03T09:53:42.085Z,191.87
2024-02-03T09:54:42.101Z,183.56
2024-02-03T09:55:42.101Z,180.08
2024-02-03T09:56:42.071Z,172.54
2024-02-03T09:57:42.112Z,169.95
2024-02-03T09:58:43.012Z,166.31
2024-02-03T09:59:42.109Z,158.89
2024-02-03T10:00:42.167Z,152.92
2024-02-03T10:01:42.126Z,145.55
2024-02-03T10:02:42.088Z,143.17
2024-02-03T10:03:42.133Z,140.69
2024-02-03T10:04:42.340Z,138.77
2024-02-03T10:05:42.100Z,135.82
2024-02-03T10:06:42.158Z,131.87
2024-02-03T10:07:42.125Z,131.19
2024-02-03T10:08:42.087Z,129.16
2024-02-03T10:11:42.223Z,135.20
2024-02-03T10:12:42.164Z,132.50
2024-02-03T10:13:42.144Z,130.42
2024-02-03T10:14:42.265Z,128.37
2024-02-03T10:15:42.211Z,126.77
2024-02-03T10:16:42.106Z,126.56
2024-02-03T10:17:42.230Z,125.98
2024-02-03T10:18:42.301Z,126.56
2024-02-03T10:19:42.289Z,126.92
2024-02-03T10:20:42.134Z,128.89
2024-02-03T10:21:42.196Z,130.07
2024-02-03T10:22:42.149Z,126.29
2024-02-03T10:23:42.136Z,122.30
2024-02-03T10:24:42.197Z,121.36
2024-02-03T10:25:42.153Z,118.03
2024-02-03T10:26:42.152Z,119.90
2024-02-03T10:27:42.184Z,121.68
2024-02-03T10:28:42.153Z,119.47
2024-02-03T10:29:42.173Z,118.33
2024-02-03T10:30:42.172Z,121.85
2024-02-03T10:31:42.159Z,124.09
2024-02-03T10:32:42.199Z,123.11
2024-02-03T10:33:42.223Z,117.05
2024-02-03T10:34:42.238Z,116.64
2024-02-03T10:35:42.158Z,113.70
2024-02-03T10:36:46.442Z,115.10
2024-02-03T10:37:43.249Z,115.19
2024-02-03T10:38:42.163Z,113.17
2024-02-03T10:39:42.205Z,109.98
2024-02-03T10:40:42.185Z,107.71
2024-02-03T10:41:42.174Z,101.96
2024-02-03T10:42:42.201Z,93.60
2024-02-03T10:43:42.158Z,83.04
2024-02-03T10:44:42.166Z,77.93
2024-02-03T10:45:42.226Z,77.48
2024-02-03T10:46:42.190Z,74.57
2024-02-03T10:47:42.196Z,69.34
2024-02-03T10:48:42.308Z,71.39
2024-02-03T10:49:42.265Z,69.38
2024-02-03T10:50:42.330Z,70.59
2024-02-03T10:51:42.261Z,75.70
2024-02-03T10:52:42.262Z,77.77
2024-02-03T10:53:42.304Z,80.81
2024-02-03T10:54:42.375Z,82.04
2024-02-03T10:55:47.384Z,84.56
2024-02-03T10:56:42.381Z,84.83
2024-02-03T10:57:42.411Z,86.16
2024-02-03T10:58:42.365Z,87.26
2024-02-03T10:59:42.367Z,90.36
2024-02-03T11:00:42.457Z,95.36
2024-02-03T11:01:42.454Z,102.16
2024-02-03T11:02:42.393Z,104.17
2024-02-03T11:03:42.460Z,119.03
2024-02-03T11:04:42.423Z,124.36
2024-02-03T11:05:42.402Z,130.19
2024-02-03T11:06:42.405Z,135.24
2024-02-03T11:07:42.378Z,135.17
2024-02-03T11:08:42.392Z,125.96
2024-02-03T11:09:42.445Z,115.67
2024-02-03T11:10:42.449Z,108.74
2024-02-03T11:11:42.478Z,99.95
2024-02-03T11:12:42.519Z,92.77
2024-02-03T11:13:42.569Z,83.28
2024-02-03T11:14:42.639Z,76.56
2024-02-03T11:15:42.705Z,74.02
2024-02-03T11:16:42.734Z,68.36
2024-02-03T11:17:42.805Z,67.62
2024-02-03T11:18:43.047Z,67.79
2024-02-03T11:19:42.985Z,68.76
2024-02-03T11:20:42.878Z,59.00
2024-02-03T11:21:42.943Z,52.33
2024-02-03T11:22:42.980Z,51.63
2024-02-03T11:23:43.029Z,58.64
2024-02-03T11:24:43.162Z,62.04
2024-02-03T11:25:43.140Z,63.78
2024-02-03T11:26:43.193Z,69.15
2024-02-03T11:27:43.253Z,61.29
2024-02-03T11:28:43.294Z,56.56
2024-02-03T11:29:43.323Z,53.43
2024-02-03T11:30:43.520Z,50.00
2024-02-03T11:31:43.504Z,51.20
2024-02-03T11:32:43.613Z,53.90
2024-02-03T11:33:43.681Z,55.93
2024-02-03T11:34:43.631Z,56.80
2024-02-03T11:35:43.583Z,55.12
2024-02-03T11:36:43.631Z,53.00
2024-02-03T11:37:43.625Z,57.75
2024-02-03T11:38:43.674Z,58.70
2024-02-03T11:39:43.737Z,65.05
2024-02-03T11:40:43.692Z,69.62
2024-02-03T11:41:43.686Z,71.87
2024-02-03T11:42:43.795Z,67.23
2024-02-03T11:43:43.748Z,57.52
2024-02-03T11:44:43.764Z,54.48
2024-02-03T11:45:43.866Z,61.76
2024-02-03T11:46:43.908Z,64.06
2024-02-03T11:47:43.901Z,68.60
2024-02-03T11:48:43.963Z,75.12
2024-02-03T11:49:43.984Z,79.51
2024-02-03T11:50:43.894Z,78.32
2024-02-03T11:51:43.984Z,79.54
2024-02-03T11:52:43.960Z,76.94
2024-02-03T11:53:43.976Z,77.57
2024-02-03T11:54:44.100Z,77.27
2024-02-03T11:55:44.021Z,74.76
2024-02-03T11:56:44.071Z,70.62
2024-02-03T11:57:44.132Z,59.49
2024-02-03T11:58:44.116Z,64.33
2024-02-03T11:59:44.095Z,70.55
2024-02-03T12:00:44.192Z,64.38
2024-02-03T12:01:44.156Z,63.44
2024-02-03T12:02:44.145Z,62.37
2024-02-03T12:03:44.267Z,64.93
2024-02-03T12:04:44.221Z,68.48
2024-02-03T12:05:44.208Z,70.49
2024-02-03T12:06:44.277Z,70.40
2024-02-03T12:07:44.349Z,71.76
2024-02-03T12:08:44.317Z,76.73
2024-02-03T12:09:44.429Z,74.35
2024-02-03T12:10:44.418Z,77.18
2024-02-03T12:11:44.476Z,74.64
2024-02-03T12:12:44.601Z,73.49
2024-02-03T12:13:44.581Z,75.92
2024-02-03T12:14:44.662Z,76.81
2024-02-03T12:15:44.754Z,79.49
2024-02-03T12:16:44.748Z,82.95
2024-02-03T12:17:44.900Z,85.23
2024-02-03T12:18:44.983Z,90.16
2024-02-03T12:19:44.923Z,91.77
2024-02-03T12:20:44.909Z,90.88
2024-02-03T12:21:44.990Z,93.57
2024-02-03T12:22:44.993Z,87.91
2024-02-03T12:23:45.087Z,86.66
2024-02-03T12:24:45.078Z,81.25
2024-02-03T12:25:45.141Z,77.26
2024-02-03T12:26:45.192Z,77.19
2024-02-03T12:27:45.337Z,75.89
2024-02-03T12:28:45.389Z,79.48
2024-02-03T12:29:45.345Z,88.43
2024-02-03T12:30:45.430Z,79.28
2024-02-03T12:31:45.396Z,77.78
2024-02-03T12:32:45.472Z,71.57
2024-02-03T12:33:45.598Z,67.11
2024-02-03T12:34:45.763Z,71.86
2024-02-03T12:35:45.567Z,79.00
2024-02-03T12:36:45.655Z,87.10
2024-02-03T12:37:45.626Z,94.36
2024-02-03T12:38:45.642Z,94.43
2024-02-03T12:39:45.799Z,87.83
2024-02-03T12:40:45.697Z,79.45
2024-02-03T12:41:45.694Z,79.58
2024-02-03T12:42:45.801Z,82.75
2024-02-03T12:43:45.745Z,85.17
2024-02-03T12:44:45.759Z,88.95
2024-02-03T12:45:45.832Z,82.75
2024-02-03T12:46:45.868Z,83.87